Time;durP1;ratioP1;P1;durP2;ratioP2;P2;SDS_P1;SDS_P2;PMS_P1;PMS_P2;Temp;Humidity;BMP_temperature;BMP_pressure;BME280_temperature;BME280_humidity;BME280_pressure;Samples;Min_cycle;Max_cycle;Signal;HPM_P1;HPM_P2
2022/03/17 00:01:12;;;;;;;;;;;4.80;99.90;;;;;;5086576;28;20403;-76
2022/03/17 00:03:38;;;;;;;;;;;4.90;99.90;;;;;;5085238;28;19916;-77
2022/03/17 00:06:05;;;;;;;;;;;4.90;99.90;;;;;;5083889;28;19916;-77
2022/03/17 00:08:31;;;;;;;;;;;4.90;99.90;;;;;;5085410;28;20049;-77
2022/03/17 00:10:57;;;;;;;;;;;4.80;99.90;;;;;;5076472;28;20003;-77
2022/03/17 00:13:22;;;;;;;;;;;4.70;99.90;;;;;;5070758;28;19917;-77
2022/03/17 00:15:48;;;;;;;;;;;4.70;99.90;;;;;;5082414;28;20263;-77
2022/03/17 00:18:13;;;;;;;;;;;4.70;99.90;;;;;;5086925;28;19967;-76
2022/03/17 00:20:39;;;;;;;;;;;4.70;99.90;;;;;;5071104;28;19935;-77
2022/03/17 00:23:05;;;;;;;;;;;4.70;99.90;;;;;;5084780;28;20400;-77
2022/03/17 00:25:31;;;;;;;;;;;4.70;99.90;;;;;;5090856;28;19920;-77
2022/03/17 00:27:57;;;;;;;;;;;4.70;99.90;;;;;;5079537;28;20289;-77
2022/03/17 00:30:23;;;;;;;;;;;4.80;99.90;;;;;;5087996;28;19990;-77
2022/03/17 00:32:49;;;;;;;;;;;4.80;99.90;;;;;;5090630;28;19920;-78
2022/03/17 00:37:59;;;;;;;;;;;5.00;99.90;;;;;;5089360;28;19965;-78
2022/03/17 00:40:24;;;;;;;;;;;5.10;99.90;;;;;;5091052;28;19924;-77
2022/03/17 00:42:51;;;;;;;;;;;5.10;99.90;;;;;;5090408;28;20520;-76
2022/03/17 00:45:17;;;;;;;;;;;5.10;99.90;;;;;;5072924;28;19924;-78
2022/03/17 00:47:43;;;;;;;;;;;5.20;99.90;;;;;;5083744;28;20344;-78
2022/03/17 00:50:10;;;;;;;;;;;5.10;99.90;;;;;;5090523;28;19919;-77
2022/03/17 00:52:35;;;;;;;;;;;5.20;99.90;;;;;;5072740;28;20294;-77
2022/03/17 00:55:01;;;;;;;;;;;5.20;99.90;;;;;;5069811;28;19924;-78
2022/03/17 00:57:27;;;;;;;;;;;5.20;99.90;;;;;;5072041;28;19919;-79
2022/03/17 00:59:52;;;;;;;;;;;5.20;99.90;;;;;;5086625;28;19925;-78
2022/03/17 01:02:18;;;;;;;;;;;5.20;99.90;;;;;;5076551;28;20362;-78
2022/03/17 01:04:43;;;;;;;;;;;5.20;99.90;;;;;;5061349;28;19916;-78
2022/03/17 01:07:09;;;;;;;;;;;5.20;99.90;;;;;;5090179;28;19916;-78
2022/03/17 01:09:35;;;;;;;;;;;5.20;99.90;;;;;;5088209;28;20094;-78
2022/03/17 01:12:01;;;;;;;;;;;5.30;99.90;;;;;;5092166;28;19918;-78
2022/03/17 01:14:27;;;;;;;;;;;5.30;99.90;;;;;;5090198;28;19959;-78
2022/03/17 01:16:53;;;;;;;;;;;5.30;99.90;;;;;;5088740;28;19920;-79
2022/03/17 01:19:19;;;;;;;;;;;5.30;99.90;;;;;;5088511;28;20006;-78
2022/03/17 01:21:45;;;;;;;;;;;5.30;99.90;;;;;;5088949;28;19947;-78
2022/03/17 01:24:11;;;;;;;;;;;5.30;99.90;;;;;;5087813;28;19999;-78
2022/03/17 01:26:36;;;;;;;;;;;5.30;99.90;;;;;;5090201;28;20347;-78
2022/03/17 01:29:02;;;;;;;;;;;5.30;99.90;;;;;;5093151;28;19924;-79
2022/03/17 01:31:29;;;;;;;;;;;5.30;99.90;;;;;;5084564;28;19944;-78
2022/03/17 01:33:54;;;;;;;;;;;5.30;99.90;;;;;;5086266;28;19923;-78
2022/03/17 01:36:20;;;;;;;;;;;5.40;99.90;;;;;;5090016;28;19924;-78
2022/03/17 01:38:45;;;;;;;;;;;5.40;99.90;;;;;;5094623;28;20503;-79
2022/03/17 01:41:11;;;;;;;;;;;5.40;99.90;;;;;;5079972;28;19993;-78
2022/03/17 01:43:37;;;;;;;;;;;5.40;99.90;;;;;;5077940;28;19924;-78
2022/03/17 01:46:02;;;;;;;;;;;5.50;99.90;;;;;;5093258;28;19971;-78
2022/03/17 01:48:28;;;;;;;;;;;5.50;99.90;;;;;;5090460;28;19923;-78
2022/03/17 01:50:54;;;;;;;;;;;5.50;99.90;;;;;;5092773;28;20375;-78
2022/03/17 01:53:21;;;;;;;;;;;5.40;99.90;;;;;;5090868;28;19916;-78
2022/03/17 01:55:46;;;;;;;;;;;5.30;99.90;;;;;;5085931;28;19941;-78
2022/03/17 01:58:12;;;;;;;;;;;5.30;99.90;;;;;;5092597;28;19946;-78
2022/03/17 02:00:40;;;;;;;;;;;5.30;99.90;;;;;;5092709;28;19920;-78
2022/03/17 02:03:06;;;;;;;;;;;5.30;99.90;;;;;;5092616;28;19920;-78
2022/03/17 02:05:33;;;;;;;;;;;5.30;99.90;;;;;;5090379;28;20407;-78
2022/03/17 02:07:58;;;;;;;;;;;5.30;99.90;;;;;;5084631;28;20361;-78
2022/03/17 02:10:24;;;;;;;;;;;5.30;99.90;;;;;;5094171;28;19912;-78
2022/03/17 02:15:34;;;;;;;;;;;5.40;99.90;;;;;;5084283;28;20032;-78
2022/03/17 02:18:00;;;;;;;;;;;5.40;99.90;;;;;;5093996;28;20399;-78
2022/03/17 02:20:26;;;;;;;;;;;5.50;99.90;;;;;;5089345;28;20419;-79
2022/03/17 02:22:53;;;;;;;;;;;5.50;99.90;;;;;;5088015;28;20273;-78
2022/03/17 02:25:35;;;;;;;;;;;5.60;99.90;;;;;;5088770;28;19916;-78
2022/03/17 02:28:02;;;;;;;;;;;5.60;99.90;;;;;;5093841;28;19912;-79
2022/03/17 02:30:28;;;;;;;;;;;5.60;99.90;;;;;;5081732;28;19921;-78
2022/03/17 02:32:59;;;;;;;;;;;5.60;99.90;;;;;;5086958;28;19919;-78
2022/03/17 02:35:25;;;;;;;;;;;5.60;99.90;;;;;;5088867;28;19917;-78
2022/03/17 02:37:51;;;;;;;;;;;5.60;99.90;;;;;;5090087;28;19934;-79
2022/03/17 02:40:17;;;;;;;;;;;5.60;99.90;;;;;;5091396;28;20388;-78
2022/03/17 02:42:42;;;;;;;;;;;5.60;99.90;;;;;;5092182;28;20010;-78
2022/03/17 02:45:10;;;;;;;;;;;5.60;99.90;;;;;;5090101;28;19938;-79
2022/03/17 02:47:37;;;;;;;;;;;5.60;99.90;;;;;;5089877;28;19923;-78
2022/03/17 02:50:03;;;;;;;;;;;5.60;99.90;;;;;;5084508;28;19919;-78
2022/03/17 02:52:29;;;;;;;;;;;5.60;99.90;;;;;;5092738;28;20425;-78
2022/03/17 02:54:54;;;;;;;;;;;5.60;99.90;;;;;;5085678;28;19916;-77
2022/03/17 02:57:20;;;;;;;;;;;5.60;99.90;;;;;;5088588;28;19935;-78
2022/03/17 02:59:49;;;;;;;;;;;5.50;99.90;;;;;;5093814;28;19919;-78
2022/03/17 03:02:15;;;;;;;;;;;5.60;99.90;;;;;;5075294;28;19947;-78
2022/03/17 03:04:41;;;;;;;;;;;5.60;99.90;;;;;;5091144;28;19916;-78
2022/03/17 03:07:06;;;;;;;;;;;5.60;99.90;;;;;;5085206;28;19913;-77
2022/03/17 03:09:33;;;;;;;;;;;5.60;99.90;;;;;;5084944;28;20286;-78
2022/03/17 03:11:58;;;;;;;;;;;5.50;99.90;;;;;;5083733;28;19916;-78
2022/03/17 03:14:24;;;;;;;;;;;5.50;99.90;;;;;;5091334;28;19923;-78
2022/03/17 03:16:50;;;;;;;;;;;5.60;99.90;;;;;;5091478;28;19938;-78
2022/03/17 03:19:16;;;;;;;;;;;5.50;99.90;;;;;;5078479;28;19916;-79
2022/03/17 03:21:43;;;;;;;;;;;5.50;99.90;;;;;;5087513;28;20390;-78
2022/03/17 03:24:09;;;;;;;;;;;5.50;99.90;;;;;;5083924;28;19983;-79
2022/03/17 03:26:35;;;;;;;;;;;5.50;99.90;;;;;;5089688;28;19960;-78
2022/03/17 03:29:03;;;;;;;;;;;5.40;99.90;;;;;;5070976;28;20402;-78
2022/03/17 03:31:29;;;;;;;;;;;5.40;99.90;;;;;;5072668;28;20325;-78
2022/03/17 03:33:54;;;;;;;;;;;5.30;99.90;;;;;;5071524;28;19924;-78
2022/03/17 03:39:04;;;;;;;;;;;5.20;99.90;;;;;;5071143;28;20378;-79
2022/03/17 03:41:30;;;;;;;;;;;5.20;99.90;;;;;;5085542;28;19962;-78
2022/03/17 03:43:55;;;;;;;;;;;5.30;99.90;;;;;;5085823;28;19973;-78
2022/03/17 03:46:22;;;;;;;;;;;5.30;99.90;;;;;;5090587;28;19943;-78
2022/03/17 03:48:47;;;;;;;;;;;5.30;99.90;;;;;;5081460;28;19912;-79
2022/03/17 03:51:13;;;;;;;;;;;5.40;99.90;;;;;;5092673;28;20421;-79
2022/03/17 03:56:26;;;;;;;;;;;5.40;99.90;;;;;;5074071;23;19932;-85
2022/03/17 03:58:52;;;;;;;;;;;5.40;99.90;;;;;;5067117;28;19929;-85
2022/03/17 04:01:18;;;;;;;;;;;5.40;99.90;;;;;;5049822;28;20262;-86
2022/03/17 04:03:44;;;;;;;;;;;5.30;99.90;;;;;;5034133;28;19917;-86
2022/03/17 04:06:10;;;;;;;;;;;5.30;99.90;;;;;;5052977;28;19916;-86
2022/03/17 04:08:36;;;;;;;;;;;5.30;99.90;;;;;;5066365;28;20359;-86
2022/03/17 04:11:01;;;;;;;;;;;5.20;99.90;;;;;;5051732;28;19922;-86
2022/03/17 04:13:27;;;;;;;;;;;5.30;99.90;;;;;;5067230;28;19913;-84
2022/03/17 04:15:53;;;;;;;;;;;5.20;99.90;;;;;;5035993;28;19931;-86
2022/03/17 04:18:18;;;;;;;;;;;5.20;99.90;;;;;;5068696;28;20519;-87
2022/03/17 04:20:44;;;;;;;;;;;5.30;99.90;;;;;;5053297;28;19912;-86
2022/03/17 04:23:10;;;;;;;;;;;5.30;99.90;;;;;;5053144;28;20026;-86
2022/03/17 04:25:36;;;;;;;;;;;5.30;99.90;;;;;;5070315;28;19913;-86
2022/03/17 04:28:04;;;;;;;;;;;5.20;99.90;;;;;;5052732;28;19941;-85
2022/03/17 04:30:30;;;;;;;;;;;5.20;99.90;;;;;;5035755;28;20274;-86
2022/03/17 04:32:56;;;;;;;;;;;5.10;99.90;;;;;;5053198;28;19962;-86
2022/03/17 04:35:21;;;;;;;;;;;5.10;99.90;;;;;;5053225;28;19925;-87
2022/03/17 04:37:47;;;;;;;;;;;5.00;99.90;;;;;;5035761;28;19923;-86
2022/03/17 04:40:13;;;;;;;;;;;5.10;99.90;;;;;;5045367;28;19924;-87
2022/03/17 04:42:39;;;;;;;;;;;5.00;99.90;;;;;;5050350;28;20332;-87
2022/03/17 04:45:05;;;;;;;;;;;5.10;99.90;;;;;;5050415;28;19912;-86
2022/03/17 04:47:30;;;;;;;;;;;5.10;99.90;;;;;;5066177;28;19919;-86
2022/03/17 04:49:56;;;;;;;;;;;5.10;99.90;;;;;;5068971;28;19913;-86
2022/03/17 04:55:06;;;;;;;;;;;5.00;99.90;;;;;;5069030;28;19912;-86
2022/03/17 04:57:31;;;;;;;;;;;5.00;99.90;;;;;;5035662;28;19948;-86
2022/03/17 04:59:57;;;;;;;;;;;5.00;99.90;;;;;;5069550;28;19928;-86
2022/03/17 05:02:23;;;;;;;;;;;5.00;99.90;;;;;;5073202;28;20286;-87
2022/03/17 05:04:50;;;;;;;;;;;5.00;99.90;;;;;;5055754;28;19927;-86
2022/03/17 05:07:15;;;;;;;;;;;5.00;99.90;;;;;;5072687;28;19919;-86
2022/03/17 05:09:41;;;;;;;;;;;5.00;99.90;;;;;;5032841;28;20023;-87
2022/03/17 05:12:08;;;;;;;;;;;5.00;99.90;;;;;;5040027;28;19917;-86
2022/03/17 05:14:33;;;;;;;;;;;5.00;99.90;;;;;;5035894;28;19916;-87
2022/03/17 05:16:59;;;;;;;;;;;5.00;99.90;;;;;;5037050;28;19994;-86
2022/03/17 05:19:24;;;;;;;;;;;5.10;99.90;;;;;;5039823;28;19947;-87
2022/03/17 05:21:52;;;;;;;;;;;5.10;99.90;;;;;;5039972;28;19917;-87
2022/03/17 05:24:18;;;;;;;;;;;5.10;99.90;;;;;;5040359;28;20370;-86
2022/03/17 05:26:45;;;;;;;;;;;5.10;99.90;;;;;;5072817;28;19913;-86
2022/03/17 05:29:12;;;;;;;;;;;5.20;99.90;;;;;;5071674;28;19925;-86
2022/03/17 05:31:38;;;;;;;;;;;5.10;99.90;;;;;;5069229;28;19912;-84
2022/03/17 05:34:03;;;;;;;;;;;5.10;99.90;;;;;;5057246;28;20401;-85
2022/03/17 05:36:29;;;;;;;;;;;5.10;99.90;;;;;;5089867;28;19913;-84
2022/03/17 05:38:55;;;;;;;;;;;5.10;99.90;;;;;;5041949;28;19920;-84
2022/03/17 05:41:22;;;;;;;;;;;5.20;99.90;;;;;;5036563;28;20003;-84
2022/03/17 05:43:47;;;;;;;;;;;5.20;99.90;;;;;;5063914;28;20004;-86
2022/03/17 05:46:14;;;;;;;;;;;5.20;99.90;;;;;;5070058;28;19959;-86
2022/03/17 05:48:40;;;;;;;;;;;5.20;99.90;;;;;;5072123;28;19913;-86
2022/03/17 05:51:06;;;;;;;;;;;5.20;99.90;;;;;;5055420;28;19913;-86
2022/03/17 05:53:31;;;;;;;;;;;5.20;99.90;;;;;;5056244;28;19916;-86
2022/03/17 05:55:57;;;;;;;;;;;5.20;99.90;;;;;;5072228;28;19918;-86
2022/03/17 05:58:23;;;;;;;;;;;5.20;99.90;;;;;;5071810;28;20386;-85
2022/03/17 06:00:49;;;;;;;;;;;5.30;99.90;;;;;;5048445;28;19921;-86
2022/03/17 06:03:14;;;;;;;;;;;5.30;99.90;;;;;;5056684;28;19923;-86
2022/03/17 06:05:42;;;;;;;;;;;5.40;99.90;;;;;;5053063;28;19913;-85
2022/03/17 06:08:08;;;;;;;;;;;5.40;99.90;;;;;;5071625;28;20557;-86
2022/03/17 06:10:34;;;;;;;;;;;5.30;99.90;;;;;;5055623;28;19917;-86
2022/03/17 06:13:01;;;;;;;;;;;5.30;99.90;;;;;;5038993;28;19971;-86
2022/03/17 06:15:27;;;;;;;;;;;5.40;99.90;;;;;;5046379;28;19913;-86
2022/03/17 06:17:54;;;;;;;;;;;5.40;99.90;;;;;;5068240;28;19958;-86
2022/03/17 06:20:20;;;;;;;;;;;5.30;99.90;;;;;;5055182;28;19920;-87
2022/03/17 06:22:47;;;;;;;;;;;5.30;99.90;;;;;;5058627;28;19948;-86
2022/03/17 06:25:15;;;;;;;;;;;5.40;99.90;;;;;;5055221;28;19912;-86
2022/03/17 06:27:42;;;;;;;;;;;5.40;99.90;;;;;;5055046;28;19920;-86
2022/03/17 06:30:09;;;;;;;;;;;5.40;99.90;;;;;;5051909;28;19919;-86
2022/03/17 06:32:35;;;;;;;;;;;5.40;99.90;;;;;;5055364;28;19995;-86
2022/03/17 06:35:00;;;;;;;;;;;5.50;99.90;;;;;;5033083;28;20445;-86
2022/03/17 06:37:26;;;;;;;;;;;5.50;99.90;;;;;;5068269;28;19999;-86
2022/03/17 06:39:53;;;;;;;;;;;5.50;99.90;;;;;;5050231;28;19920;-86
2022/03/17 06:42:19;;;;;;;;;;;5.60;99.90;;;;;;5055611;28;19913;-86
2022/03/17 06:44:45;;;;;;;;;;;5.60;99.90;;;;;;5055257;28;19913;-86
2022/03/17 06:47:11;;;;;;;;;;;5.70;99.90;;;;;;5070619;28;19951;-86
2022/03/17 06:49:36;;;;;;;;;;;5.70;99.90;;;;;;5053653;28;19913;-86
2022/03/17 06:52:02;;;;;;;;;;;5.70;99.90;;;;;;5045272;28;19920;-87
2022/03/17 06:54:28;;;;;;;;;;;5.70;99.90;;;;;;5068521;28;19919;-86
2022/03/17 06:56:53;;;;;;;;;;;5.80;99.90;;;;;;5040714;28;19981;-86
2022/03/17 06:59:19;;;;;;;;;;;5.80;99.90;;;;;;5041098;28;20301;-85
2022/03/17 07:01:44;;;;;;;;;;;5.80;99.90;;;;;;5036450;28;20062;-89
2022/03/17 07:04:10;;;;;;;;;;;5.90;99.90;;;;;;5053436;28;19916;-86
2022/03/17 07:06:36;;;;;;;;;;;5.90;99.90;;;;;;5064402;28;19923;-86
2022/03/17 07:09:01;;;;;;;;;;;5.90;99.90;;;;;;5053666;28;19916;-86
2022/03/17 07:11:27;;;;;;;;;;;5.90;99.90;;;;;;5043314;28;19916;-86
2022/03/17 07:13:52;;;;;;;;;;;6.00;99.90;;;;;;5071393;28;19967;-86
2022/03/17 07:16:18;;;;;;;;;;;6.00;99.90;;;;;;5051141;28;19942;-87
2022/03/17 07:18:44;;;;;;;;;;;6.00;99.90;;;;;;5036116;28;19916;-86
2022/03/17 07:21:10;;;;;;;;;;;6.00;99.90;;;;;;5064707;28;19919;-86
2022/03/17 07:23:36;;;;;;;;;;;6.10;99.90;;;;;;5050509;28;20003;-85
2022/03/17 07:26:02;;;;;;;;;;;6.10;99.90;;;;;;5070497;28;19924;-84
2022/03/17 07:28:28;;;;;;;;;;;6.20;99.90;;;;;;5050814;28;19913;-85
2022/03/17 07:30:54;;;;;;;;;;;6.20;99.90;;;;;;5050528;28;19963;-85
2022/03/17 07:33:19;;;;;;;;;;;6.30;99.90;;;;;;5037543;28;19916;-86
2022/03/17 07:35:45;;;;;;;;;;;6.30;99.90;;;;;;5037168;28;20382;-86
2022/03/17 07:38:10;;;;;;;;;;;6.40;99.90;;;;;;5051863;28;19916;-87
2022/03/17 07:40:36;;;;;;;;;;;6.40;99.90;;;;;;5053271;28;20024;-86
2022/03/17 07:43:02;;;;;;;;;;;6.50;99.90;;;;;;5035949;28;19916;-84
2022/03/17 07:45:30;;;;;;;;;;;6.50;99.90;;;;;;5070014;28;20336;-85
2022/03/17 07:48:15;;;;;;;;;;;6.60;99.90;;;;;;5067634;28;20004;-86
2022/03/17 07:50:53;;;;;;;;;;;6.60;99.90;;;;;;5052552;28;20287;-86
2022/03/17 07:53:19;;;;;;;;;;;6.60;99.90;;;;;;5070491;28;19923;-85
2022/03/17 07:55:45;;;;;;;;;;;6.60;99.90;;;;;;5041359;28;19917;-85
2022/03/17 07:58:10;;;;;;;;;;;6.70;99.90;;;;;;5069598;28;20370;-84
2022/03/17 08:00:41;;;;;;;;;;;6.70;99.90;;;;;;5053588;28;20275;-84
2022/03/17 08:03:07;;;;;;;;;;;6.70;99.90;;;;;;5053222;28;19916;-84
2022/03/17 08:05:33;;;;;;;;;;;6.70;99.90;;;;;;5051438;28;19915;-86
2022/03/17 08:08:02;;;;;;;;;;;6.80;99.90;;;;;;5064802;28;19920;-83
2022/03/17 08:10:30;;;;;;;;;;;6.80;99.90;;;;;;5059319;28;20417;-83
2022/03/17 08:12:56;;;;;;;;;;;6.80;99.90;;;;;;5070103;28;19999;-83
2022/03/17 08:15:22;;;;;;;;;;;6.80;99.90;;;;;;5052806;28;20463;-84
2022/03/17 08:17:48;;;;;;;;;;;6.80;99.90;;;;;;5051042;28;19912;-84
2022/03/17 08:20:14;;;;;;;;;;;6.90;99.90;;;;;;5036160;28;19920;-85
2022/03/17 08:22:42;;;;;;;;;;;6.90;99.90;;;;;;5036619;28;19997;-83
2022/03/17 08:25:08;;;;;;;;;;;6.80;99.90;;;;;;5053547;28;19951;-83
2022/03/17 08:27:38;;;;;;;;;;;6.90;99.90;;;;;;5033752;28;19963;-83
2022/03/17 08:30:05;;;;;;;;;;;6.90;99.90;;;;;;5069748;28;19958;-83
2022/03/17 08:32:30;;;;;;;;;;;6.90;99.90;;;;;;5054112;28;19919;-83
2022/03/17 08:34:56;;;;;;;;;;;7.00;99.90;;;;;;5054564;28;19917;-84
2022/03/17 08:37:21;;;;;;;;;;;7.00;99.90;;;;;;5041179;28;19920;-85
2022/03/17 08:39:48;;;;;;;;;;;7.00;99.90;;;;;;5057053;28;19939;-84
2022/03/17 08:42:14;;;;;;;;;;;7.00;99.90;;;;;;5058332;28;19931;-82
2022/03/17 08:44:39;;;;;;;;;;;7.10;99.90;;;;;;5058298;28;19916;-85
2022/03/17 08:49:49;;;;;;;;;;;7.10;99.90;;;;;;5071161;28;20389;-84
2022/03/17 08:52:15;;;;;;;;;;;7.20;99.90;;;;;;5054149;28;19916;-84
2022/03/17 08:54:42;;;;;;;;;;;7.20;99.90;;;;;;5037779;28;19913;-87
2022/03/17 08:57:08;;;;;;;;;;;7.30;99.90;;;;;;5072714;28;19943;-84
2022/03/17 08:59:35;;;;;;;;;;;7.30;99.90;;;;;;5056678;28;19921;-86
2022/03/17 09:02:01;;;;;;;;;;;7.40;99.90;;;;;;5070452;28;19920;-87
2022/03/17 09:04:28;;;;;;;;;;;7.50;99.90;;;;;;5053558;28;19955;-86
2022/03/17 09:06:59;;;;;;;;;;;7.50;99.90;;;;;;5054629;28;19923;-86
2022/03/17 09:09:25;;;;;;;;;;;7.60;99.90;;;;;;5065739;28;19912;-85
2022/03/17 09:11:51;;;;;;;;;;;7.60;99.90;;;;;;5049587;28;20298;-85
2022/03/17 09:14:16;;;;;;;;;;;7.70;99.90;;;;;;5054293;28;20006;-86
2022/03/17 09:16:42;;;;;;;;;;;7.70;99.90;;;;;;5037115;28;19917;-86
2022/03/17 09:19:07;;;;;;;;;;;7.80;99.90;;;;;;5039010;28;19920;-86
2022/03/17 09:21:35;;;;;;;;;;;7.80;99.90;;;;;;5048870;28;19938;-88
2022/03/17 09:24:00;;;;;;;;;;;7.90;99.90;;;;;;5070212;28;20015;-87
2022/03/17 09:26:26;;;;;;;;;;;8.00;99.90;;;;;;5048141;28;19996;-87
2022/03/17 09:28:52;;;;;;;;;;;8.10;99.90;;;;;;5069564;28;20525;-86
2022/03/17 09:31:18;;;;;;;;;;;8.20;99.90;;;;;;5037693;28;19967;-87
2022/03/17 09:33:45;;;;;;;;;;;8.20;99.90;;;;;;5056401;28;19965;-87
2022/03/17 09:36:10;;;;;;;;;;;8.40;99.90;;;;;;5056585;28;19956;-86
2022/03/17 09:38:36;;;;;;;;;;;8.50;99.90;;;;;;5054375;28;19951;-86
2022/03/17 09:41:23;;;;;;;;;;;8.60;99.90;;;;;;5072867;28;20335;-84
2022/03/17 09:43:48;;;;;;;;;;;8.70;99.90;;;;;;5073013;28;20370;-86
2022/03/17 09:46:14;;;;;;;;;;;8.70;99.90;;;;;;5026610;28;19917;-85
2022/03/17 09:48:40;;;;;;;;;;;8.70;99.90;;;;;;5033512;28;20034;-87
2022/03/17 09:51:06;;;;;;;;;;;8.70;99.90;;;;;;5052876;28;19995;-87
2022/03/17 09:53:31;;;;;;;;;;;8.80;99.90;;;;;;5035916;28;20019;-85
2022/03/17 09:55:57;;;;;;;;;;;8.90;99.90;;;;;;5037689;28;19917;-84
2022/03/17 09:58:23;;;;;;;;;;;8.90;99.90;;;;;;5042199;28;20497;-86
2022/03/17 10:00:48;;;;;;;;;;;8.90;99.90;;;;;;5065416;28;19924;-87
2022/03/17 10:03:25;;;;;;;;;;;9.00;99.90;;;;;;5054407;28;19916;-86
2022/03/17 10:05:51;;;;;;;;;;;9.00;99.90;;;;;;5052467;28;20422;-86
2022/03/17 10:08:18;;;;;;;;;;;9.00;99.90;;;;;;5048826;28;19917;-85
2022/03/17 10:10:44;;;;;;;;;;;9.00;99.90;;;;;;5035271;28;19917;-86
2022/03/17 10:13:10;;;;;;;;;;;9.00;99.90;;;;;;5049627;28;19955;-84
2022/03/17 10:15:36;;;;;;;;;;;8.90;99.90;;;;;;5048660;28;19913;-85
2022/03/17 10:18:17;;;;;;;;;;;8.90;99.90;;;;;;5065375;28;20278;-87
2022/03/17 10:20:42;;;;;;;;;;;8.90;99.90;;;;;;5051970;28;19923;-88
2022/03/17 10:23:08;;;;;;;;;;;9.00;99.90;;;;;;5037715;28;19921;-84
2022/03/17 10:25:34;;;;;;;;;;;9.00;99.90;;;;;;5031145;28;19917;-87
2022/03/17 10:28:01;;;;;;;;;;;9.00;99.90;;;;;;5042229;28;19917;-84
2022/03/17 10:30:33;;;;;;;;;;;9.10;99.90;;;;;;5066256;28;19951;-87
2022/03/17 10:33:00;;;;;;;;;;;9.10;99.90;;;;;;5047605;28;19943;-84
2022/03/17 10:35:36;;;;;;;;;;;9.20;99.90;;;;;;5048798;28;19999;-83
2022/03/17 10:38:09;;;;;;;;;;;9.20;99.90;;;;;;5059649;28;19920;-83
2022/03/17 10:40:35;;;;;;;;;;;9.20;99.90;;;;;;5064604;28;19955;-85
2022/03/17 10:43:17;;;;;;;;;;;9.20;99.90;;;;;;5068153;28;19949;-83
2022/03/17 10:45:42;;;;;;;;;;;9.20;99.90;;;;;;5048727;28;19966;-85
2022/03/17 10:48:08;;;;;;;;;;;9.30;99.90;;;;;;5036918;28;19956;-86
2022/03/17 10:50:38;;;;;;;;;;;9.30;99.90;;;;;;5049618;28;19992;-84
2022/03/17 10:53:04;;;;;;;;;;;9.30;99.90;;;;;;5051041;28;20370;-84
2022/03/17 10:55:34;;;;;;;;;;;9.30;99.90;;;;;;5049440;28;19916;-84
2022/03/17 10:58:13;;;;;;;;;;;9.30;99.90;;;;;;5047457;28;19927;-86
2022/03/17 11:00:52;;;;;;;;;;;9.40;99.90;;;;;;5052037;28;19920;-83
2022/03/17 11:03:19;;;;;;;;;;;9.40;99.90;;;;;;5063230;28;19912;-85
2022/03/17 11:05:44;;;;;;;;;;;9.30;99.90;;;;;;5045946;28;19962;-84
2022/03/17 11:08:10;;;;;;;;;;;9.40;99.90;;;;;;5061019;28;19920;-84
2022/03/17 11:10:37;;;;;;;;;;;9.30;99.90;;;;;;5064940;28;19920;-86
2022/03/17 11:13:08;;;;;;;;;;;9.30;99.90;;;;;;5029798;28;19956;-84
2022/03/17 11:15:38;;;;;;;;;;;9.40;99.90;;;;;;5047386;28;19923;-88
2022/03/17 11:18:06;;;;;;;;;;;9.40;99.90;;;;;;5028900;28;19924;-86
2022/03/17 11:20:32;;;;;;;;;;;9.40;99.90;;;;;;5059772;28;19951;-88
2022/03/17 11:23:15;;;;;;;;;;;9.50;99.90;;;;;;5055277;28;19956;-86
2022/03/17 11:25:45;;;;;;;;;;;9.50;99.90;;;;;;5065672;28;19934;-87
2022/03/17 11:28:11;;;;;;;;;;;9.50;99.90;;;;;;5050018;28;19917;-88
2022/03/17 11:30:41;;;;;;;;;;;9.60;99.90;;;;;;5047482;28;19912;-87
2022/03/17 11:33:26;;;;;;;;;;;9.60;99.90;;;;;;5049027;28;19927;-87
2022/03/17 11:35:52;;;;;;;;;;;9.70;99.90;;;;;;5047165;28;20026;-86
2022/03/17 11:38:23;;;;;;;;;;;9.80;99.90;;;;;;5049639;28;19965;-89
2022/03/17 11:41:02;;;;;;;;;;;9.80;99.90;;;;;;5043808;28;19944;-87
2022/03/17 11:43:37;;;;;;;;;;;9.80;99.90;;;;;;5060504;28;19924;-87
2022/03/17 11:46:10;;;;;;;;;;;9.90;99.90;;;;;;5067222;28;20640;-87
2022/03/17 11:48:36;;;;;;;;;;;10.00;99.90;;;;;;5043802;28;19991;-86
2022/03/17 11:51:05;;;;;;;;;;;10.00;99.90;;;;;;5064384;28;20357;-86
2022/03/17 11:53:37;;;;;;;;;;;10.10;99.90;;;;;;5047105;28;19924;-86
2022/03/17 11:56:03;;;;;;;;;;;10.10;99.90;;;;;;5057402;28;19963;-86
2022/03/17 11:58:37;;;;;;;;;;;10.20;99.90;;;;;;5046420;28;19959;-86
2022/03/17 12:01:02;;;;;;;;;;;10.30;99.90;;;;;;5065532;28;19917;-86
2022/03/17 12:03:29;;;;;;;;;;;10.30;99.90;;;;;;5066875;28;19962;-86
2022/03/17 12:06:24;;;;;;;;;;;10.20;99.90;;;;;;5022472;28;19951;-87
2022/03/17 12:09:04;;;;;;;;;;;10.20;99.90;;;;;;5039520;28;19916;-86
2022/03/17 12:11:32;;;;;;;;;;;10.20;99.90;;;;;;5032950;28;19913;-86
2022/03/17 12:14:10;;;;;;;;;;;10.20;99.90;;;;;;5052950;28;19916;-86
2022/03/17 12:16:37;;;;;;;;;;;10.30;99.90;;;;;;5063304;28;20112;-86
2022/03/17 12:19:03;;;;;;;;;;;10.30;99.90;;;;;;5062652;28;19916;-85
2022/03/17 12:21:49;;;;;;;;;;;10.30;99.90;;;;;;5065919;28;23452;-87
2022/03/17 12:24:32;;;;;;;;;;;10.20;99.90;;;;;;5048837;28;19919;-88
2022/03/17 12:27:05;;;;;;;;;;;10.20;99.90;;;;;;5041075;28;19917;-87
2022/03/17 12:29:31;;;;;;;;;;;10.10;99.90;;;;;;5045633;28;19923;-86
2022/03/17 12:32:04;;;;;;;;;;;10.10;99.90;;;;;;5067852;28;19934;-85
2022/03/17 12:34:30;;;;;;;;;;;10.10;99.90;;;;;;5059867;28;20517;-86
2022/03/17 12:36:59;;;;;;;;;;;10.00;99.90;;;;;;5057813;28;19913;-86
2022/03/17 12:39:29;;;;;;;;;;;10.00;99.90;;;;;;5051116;28;19952;-86
2022/03/17 12:41:55;;;;;;;;;;;10.10;99.90;;;;;;5047529;28;19988;-87
2022/03/17 12:44:22;;;;;;;;;;;10.10;99.90;;;;;;5069622;28;19920;-87
2022/03/17 12:46:48;;;;;;;;;;;10.10;99.90;;;;;;5066726;28;19912;-87
2022/03/17 12:49:13;;;;;;;;;;;10.10;99.90;;;;;;5050159;28;19916;-87
2022/03/17 12:51:39;;;;;;;;;;;10.20;99.90;;;;;;5033078;28;19983;-86
2022/03/17 12:54:04;;;;;;;;;;;10.30;99.90;;;;;;5027644;28;20424;-87
2022/03/17 12:56:30;;;;;;;;;;;10.30;99.90;;;;;;5033132;28;19921;-86
2022/03/17 12:59:03;;;;;;;;;;;10.30;99.90;;;;;;5051000;28;19949;-87
2022/03/17 13:01:29;;;;;;;;;;;10.50;99.90;;;;;;5058858;28;19913;-87
2022/03/17 13:03:55;;;;;;;;;;;10.50;99.90;;;;;;5033230;28;19924;-88
2022/03/17 13:09:05;;;;;;;;;;;10.60;99.90;;;;;;5060565;28;20727;-88
2022/03/17 13:14:21;;;;;;;;;;;10.80;99.90;;;;;;5070678;28;19920;-87
2022/03/17 13:16:57;;;;;;;;;;;10.90;99.90;;;;;;5049946;28;19960;-90
2022/03/17 13:19:23;;;;;;;;;;;10.90;99.90;;;;;;5068740;28;19932;-87
2022/03/17 13:21:51;;;;;;;;;;;10.90;99.90;;;;;;5080029;28;19913;-87
2022/03/17 13:24:17;;;;;;;;;;;10.70;99.90;;;;;;5073324;28;19962;-87
2022/03/17 13:26:43;;;;;;;;;;;10.70;99.90;;;;;;5068890;28;20330;-85
2022/03/17 13:29:12;;;;;;;;;;;10.70;99.90;;;;;;5021446;28;19924;-85
2022/03/17 13:31:43;;;;;;;;;;;10.80;99.90;;;;;;5072583;28;19961;-85
2022/03/17 13:34:08;;;;;;;;;;;10.90;99.90;;;;;;5036001;28;20492;-86
2022/03/17 13:36:53;;;;;;;;;;;10.90;99.90;;;;;;5052800;28;20015;-87
2022/03/17 13:39:19;;;;;;;;;;;10.80;99.90;;;;;;5066848;28;19916;-88
2022/03/17 13:41:58;;;;;;;;;;;10.80;99.90;;;;;;5072521;28;20318;-87
2022/03/17 13:44:23;;;;;;;;;;;10.80;99.90;;;;;;5039276;28;19966;-88
2022/03/17 13:46:49;;;;;;;;;;;10.80;99.90;;;;;;5055167;28;19913;-87
2022/03/17 13:49:15;;;;;;;;;;;10.80;99.90;;;;;;5035558;28;20012;-87
2022/03/17 13:51:41;;;;;;;;;;;10.80;99.90;;;;;;5056063;28;19935;-87
2022/03/17 13:54:07;;;;;;;;;;;10.90;99.90;;;;;;5039217;28;19917;-87
2022/03/17 13:56:35;;;;;;;;;;;11.00;99.90;;;;;;5072014;28;20338;-86
2022/03/17 13:59:00;;;;;;;;;;;11.00;99.90;;;;;;5053602;28;19914;-84
2022/03/17 14:01:26;;;;;;;;;;;11.10;99.90;;;;;;5069596;28;19932;-88
2022/03/17 14:03:53;;;;;;;;;;;11.10;99.90;;;;;;5038752;28;20290;-87
2022/03/17 14:06:19;;;;;;;;;;;11.20;99.90;;;;;;5047433;28;19917;-86
2022/03/17 14:08:49;;;;;;;;;;;11.30;99.90;;;;;;5054094;28;19913;-88
2022/03/17 14:11:16;;;;;;;;;;;11.20;99.90;;;;;;5053768;28;19913;-87
2022/03/17 14:13:43;;;;;;;;;;;11.20;99.90;;;;;;5054914;28;20165;-87
2022/03/17 14:16:10;;;;;;;;;;;11.20;99.90;;;;;;5054980;28;19935;-87
2022/03/17 14:18:35;;;;;;;;;;;11.20;99.90;;;;;;5070508;28;19920;-87
2022/03/17 14:21:02;;;;;;;;;;;11.20;99.90;;;;;;5071463;28;19916;-87
2022/03/17 14:26:14;;;;;;;;;;;11.40;99.90;;;;;;5065888;28;20493;-87
2022/03/17 14:28:40;;;;;;;;;;;11.40;99.90;;;;;;5050912;28;19921;-87
2022/03/17 14:31:05;;;;;;;;;;;11.50;99.90;;;;;;5053671;28;19931;-88
2022/03/17 14:33:36;;;;;;;;;;;11.60;99.90;;;;;;5044536;28;19917;-86
2022/03/17 14:36:04;;;;;;;;;;;11.60;99.90;;;;;;5070769;28;20524;-87
2022/03/17 14:38:30;;;;;;;;;;;11.70;99.90;;;;;;5053623;28;20000;-86
2022/03/17 14:40:56;;;;;;;;;;;11.70;99.90;;;;;;5054147;28;19927;-85
2022/03/17 14:43:21;;;;;;;;;;;11.60;99.90;;;;;;5049857;28;20398;-86
2022/03/17 14:45:47;;;;;;;;;;;11.70;99.90;;;;;;5050932;28;19912;-86
2022/03/17 14:48:12;;;;;;;;;;;11.60;99.90;;;;;;5062924;28;19935;-86
2022/03/17 14:50:38;;;;;;;;;;;11.50;99.90;;;;;;5054438;28;19913;-85
2022/03/17 14:53:04;;;;;;;;;;;11.50;99.90;;;;;;5034432;28;19936;-86